sensor_id;sensor_type;location;lat;lon;timestamp;P1;durP1;ratioP1;P2;durP2;ratioP2
55063;SDS011;40963;52.168;21.296;2022-07-29T00:02:24;12.38;;;7.32;;
55063;SDS011;40963;52.168;21.296;2022-07-29T00:04:50;16.27;;;7.82;;
55063;SDS011;40963;52.168;21.296;2022-07-29T00:07:15;16.45;;;7.32;;
55063;SDS011;40963;52.168;21.296;2022-07-29T00:09:41;13.32;;;7.70;;
55063;SDS011;40963;52.168;21.296;2022-07-29T00:12:07;14.50;;;7.38;;
55063;SDS011;40963;52.168;21.296;2022-07-29T00:14:32;12.18;;;6.90;;
55063;SDS011;40963;52.168;21.296;2022-07-29T00:16:58;20.95;;;7.85;;
55063;SDS011;40963;52.168;21.296;2022-07-29T00:19:24;15.90;;;7.95;;
55063;SDS011;40963;52.168;21.296;2022-07-29T00:21:49;15.95;;;6.82;;
55063;SDS011;40963;52.168;21.296;2022-07-29T00:24:15;10.98;;;7.22;;
55063;SDS011;40963;52.168;21.296;2022-07-29T00:26:40;11.57;;;6.78;;
55063;SDS011;40963;52.168;21.296;2022-07-29T00:29:06;11.10;;;6.28;;
55063;SDS011;40963;52.168;21.296;2022-07-29T00:31:32;14.13;;;6.60;;
55063;SDS011;40963;52.168;21.296;2022-07-29T00:33:57;13.93;;;6.38;;
55063;SDS011;40963;52.168;21.296;2022-07-29T00:36:23;16.50;;;7.00;;
55063;SDS011;40963;52.168;21.296;2022-07-29T00:38:49;11.88;;;6.45;;
55063;SDS011;40963;52.168;21.296;2022-07-29T00:41:16;12.18;;;6.68;;
55063;SDS011;40963;52.168;21.296;2022-07-29T00:43:43;14.45;;;7.35;;
55063;SDS011;40963;52.168;21.296;2022-07-29T00:46:09;16.60;;;6.53;;
55063;SDS011;40963;52.168;21.296;2022-07-29T00:48:35;14.60;;;6.63;;
55063;SDS011;40963;52.168;21.296;2022-07-29T00:51:01;14.65;;;6.65;;
55063;SDS011;40963;52.168;21.296;2022-07-29T00:53:28;10.93;;;6.40;;
55063;SDS011;40963;52.168;21.296;2022-07-29T00:55:55;9.55;;;6.22;;
55063;SDS011;40963;52.168;21.296;2022-07-29T00:58:21;9.95;;;5.97;;
55063;SDS011;40963;52.168;21.296;2022-07-29T01:00:47;11.88;;;5.68;;
55063;SDS011;40963;52.168;21.296;2022-07-29T01:03:13;12.32;;;5.93;;
55063;SDS011;40963;52.168;21.296;2022-07-29T01:05:38;12.40;;;6.10;;
55063;SDS011;40963;52.168;21.296;2022-07-29T01:08:06;11.05;;;5.80;;
55063;SDS011;40963;52.168;21.296;2022-07-29T01:10:32;13.18;;;5.97;;
55063;SDS011;40963;52.168;21.296;2022-07-29T01:13:03;17.42;;;5.95;;
55063;SDS011;40963;52.168;21.296;2022-07-29T01:15:30;11.10;;;5.97;;
55063;SDS011;40963;52.168;21.296;2022-07-29T01:21:05;12.02;;;5.65;;
55063;SDS011;40963;52.168;21.296;2022-07-29T01:31:30;11.75;;;5.82;;
55063;SDS011;40963;52.168;21.296;2022-07-29T01:34:03;9.02;;;5.93;;
55063;SDS011;40963;52.168;21.296;2022-07-29T01:36:32;8.00;;;5.60;;
55063;SDS011;40963;52.168;21.296;2022-07-29T01:39:05;10.23;;;5.63;;
55063;SDS011;40963;52.168;21.296;2022-07-29T01:41:36;10.95;;;5.20;;
55063;SDS011;40963;52.168;21.296;2022-07-29T01:44:18;7.20;;;5.55;;
55063;SDS011;40963;52.168;21.296;2022-07-29T01:46:52;11.82;;;5.20;;
55063;SDS011;40963;52.168;21.296;2022-07-29T01:49:27;12.70;;;5.50;;
55063;SDS011;40963;52.168;21.296;2022-07-29T01:52:00;11.73;;;5.30;;
55063;SDS011;40963;52.168;21.296;2022-07-29T01:57:03;10.45;;;5.38;;
55063;SDS011;40963;52.168;21.296;2022-07-29T01:59:33;10.88;;;4.90;;
55063;SDS011;40963;52.168;21.296;2022-07-29T02:02:01;7.25;;;5.13;;
55063;SDS011;40963;52.168;21.296;2022-07-29T02:04:27;9.25;;;5.03;;
55063;SDS011;40963;52.168;21.296;2022-07-29T02:06:56;7.63;;;4.88;;
55063;SDS011;40963;52.168;21.296;2022-07-29T02:09:25;8.05;;;5.00;;
55063;SDS011;40963;52.168;21.296;2022-07-29T02:11:52;10.55;;;4.90;;
55063;SDS011;40963;52.168;21.296;2022-07-29T02:14:20;9.80;;;4.90;;
55063;SDS011;40963;52.168;21.296;2022-07-29T02:16:48;12.85;;;5.20;;
55063;SDS011;40963;52.168;21.296;2022-07-29T02:19:18;12.88;;;4.82;;
55063;SDS011;40963;52.168;21.296;2022-07-29T02:21:47;6.85;;;4.80;;
55063;SDS011;40963;52.168;21.296;2022-07-29T02:24:14;9.23;;;4.90;;
55063;SDS011;40963;52.168;21.296;2022-07-29T02:26:42;9.15;;;4.53;;
55063;SDS011;40963;52.168;21.296;2022-07-29T02:29:09;9.73;;;4.88;;
55063;SDS011;40963;52.168;21.296;2022-07-29T02:31:38;11.20;;;5.25;;
55063;SDS011;40963;52.168;21.296;2022-07-29T02:34:06;8.50;;;4.82;;
55063;SDS011;40963;52.168;21.296;2022-07-29T02:36:33;8.60;;;4.53;;
55063;SDS011;40963;52.168;21.296;2022-07-29T02:39:00;9.90;;;4.50;;
55063;SDS011;40963;52.168;21.296;2022-07-29T02:41:30;10.20;;;4.60;;
55063;SDS011;40963;52.168;21.296;2022-07-29T02:44:06;8.27;;;4.78;;
55063;SDS011;40963;52.168;21.296;2022-07-29T02:46:38;8.25;;;4.65;;
55063;SDS011;40963;52.168;21.296;2022-07-29T02:49:15;8.35;;;4.50;;
55063;SDS011;40963;52.168;21.296;2022-07-29T02:51:55;6.38;;;4.60;;
55063;SDS011;40963;52.168;21.296;2022-07-29T02:54:31;9.00;;;4.40;;
55063;SDS011;40963;52.168;21.296;2022-07-29T02:57:11;6.15;;;4.32;;
55063;SDS011;40963;52.168;21.296;2022-07-29T02:59:44;6.75;;;4.38;;
55063;SDS011;40963;52.168;21.296;2022-07-29T03:02:13;5.43;;;4.10;;
55063;SDS011;40963;52.168;21.296;2022-07-29T03:04:40;7.53;;;4.15;;
55063;SDS011;40963;52.168;21.296;2022-07-29T03:07:07;12.48;;;4.70;;
55063;SDS011;40963;52.168;21.296;2022-07-29T03:09:35;8.85;;;4.18;;
55063;SDS011;40963;52.168;21.296;2022-07-29T03:12:01;6.90;;;4.63;;
55063;SDS011;40963;52.168;21.296;2022-07-29T03:14:29;9.05;;;4.18;;
55063;SDS011;40963;52.168;21.296;2022-07-29T03:16:56;5.93;;;4.40;;
55063;SDS011;40963;52.168;21.296;2022-07-29T03:19:22;4.22;;;3.83;;
55063;SDS011;40963;52.168;21.296;2022-07-29T03:21:48;8.52;;;4.82;;
55063;SDS011;40963;52.168;21.296;2022-07-29T03:24:33;5.40;;;3.92;;
55063;SDS011;40963;52.168;21.296;2022-07-29T03:27:00;5.85;;;4.38;;
55063;SDS011;40963;52.168;21.296;2022-07-29T03:29:27;6.88;;;4.63;;
55063;SDS011;40963;52.168;21.296;2022-07-29T03:31:53;4.95;;;3.97;;
55063;SDS011;40963;52.168;21.296;2022-07-29T03:34:19;6.28;;;4.60;;
55063;SDS011;40963;52.168;21.296;2022-07-29T03:36:45;7.93;;;4.70;;
55063;SDS011;40963;52.168;21.296;2022-07-29T03:39:11;7.40;;;3.78;;
55063;SDS011;40963;52.168;21.296;2022-07-29T03:41:41;6.00;;;4.20;;
55063;SDS011;40963;52.168;21.296;2022-07-29T03:44:09;4.88;;;4.35;;
55063;SDS011;40963;52.168;21.296;2022-07-29T03:46:35;7.28;;;4.15;;
55063;SDS011;40963;52.168;21.296;2022-07-29T03:49:04;11.60;;;4.43;;
55063;SDS011;40963;52.168;21.296;2022-07-29T03:51:33;8.00;;;4.10;;
55063;SDS011;40963;52.168;21.296;2022-07-29T03:54:01;11.55;;;4.55;;
55063;SDS011;40963;52.168;21.296;2022-07-29T03:56:27;6.43;;;3.90;;
55063;SDS011;40963;52.168;21.296;2022-07-29T03:58:54;9.68;;;4.30;;
55063;SDS011;40963;52.168;21.296;2022-07-29T04:01:21;7.95;;;4.03;;
55063;SDS011;40963;52.168;21.296;2022-07-29T04:03:48;7.15;;;3.90;;
55063;SDS011;40963;52.168;21.296;2022-07-29T04:06:14;9.05;;;3.90;;
55063;SDS011;40963;52.168;21.296;2022-07-29T04:08:40;7.90;;;4.20;;
55063;SDS011;40963;52.168;21.296;2022-07-29T04:11:05;7.60;;;3.65;;
55063;SDS011;40963;52.168;21.296;2022-07-29T04:13:31;8.15;;;4.10;;
55063;SDS011;40963;52.168;21.296;2022-07-29T04:15:58;8.57;;;3.75;;
55063;SDS011;40963;52.168;21.296;2022-07-29T04:18:23;9.85;;;4.43;;
55063;SDS011;40963;52.168;21.296;2022-07-29T04:20:49;7.00;;;4.15;;
55063;SDS011;40963;52.168;21.296;2022-07-29T04:23:15;6.78;;;3.63;;
55063;SDS011;40963;52.168;21.296;2022-07-29T04:25:41;10.20;;;3.70;;
55063;SDS011;40963;52.168;21.296;2022-07-29T04:28:08;3.90;;;3.50;;
55063;SDS011;40963;52.168;21.296;2022-07-29T04:30:34;7.80;;;3.67;;
55063;SDS011;40963;52.168;21.296;2022-07-29T04:33:02;6.10;;;3.67;;
55063;SDS011;40963;52.168;21.296;2022-07-29T04:35:29;5.35;;;3.40;;
55063;SDS011;40963;52.168;21.296;2022-07-29T04:37:56;11.18;;;3.50;;
55063;SDS011;40963;52.168;21.296;2022-07-29T04:40:21;3.90;;;3.08;;
55063;SDS011;40963;52.168;21.296;2022-07-29T04:42:47;3.47;;;3.15;;
55063;SDS011;40963;52.168;21.296;2022-07-29T04:45:13;3.53;;;3.03;;
55063;SDS011;40963;52.168;21.296;2022-07-29T04:47:41;2.88;;;2.60;;
55063;SDS011;40963;52.168;21.296;2022-07-29T04:50:07;2.97;;;2.55;;
55063;SDS011;40963;52.168;21.296;2022-07-29T04:52:33;3.50;;;2.65;;
55063;SDS011;40963;52.168;21.296;2022-07-29T04:55:00;7.57;;;2.50;;
55063;SDS011;40963;52.168;21.296;2022-07-29T04:57:26;3.08;;;2.40;;
55063;SDS011;40963;52.168;21.296;2022-07-29T04:59:52;2.33;;;2.10;;
55063;SDS011;40963;52.168;21.296;2022-07-29T05:02:17;3.05;;;2.70;;
55063;SDS011;40963;52.168;21.296;2022-07-29T05:04:43;4.30;;;2.55;;
55063;SDS011;40963;52.168;21.296;2022-07-29T05:07:09;2.38;;;2.17;;
55063;SDS011;40963;52.168;21.296;2022-07-29T05:09:34;6.07;;;2.50;;
55063;SDS011;40963;52.168;21.296;2022-07-29T05:12:00;7.55;;;2.65;;
55063;SDS011;40963;52.168;21.296;2022-07-29T05:14:26;5.40;;;2.28;;
55063;SDS011;40963;52.168;21.296;2022-07-29T05:16:51;2.63;;;1.80;;
55063;SDS011;40963;52.168;21.296;2022-07-29T05:19:17;4.90;;;1.83;;
55063;SDS011;40963;52.168;21.296;2022-07-29T05:21:46;6.25;;;2.22;;
55063;SDS011;40963;52.168;21.296;2022-07-29T05:24:12;2.65;;;1.77;;
55063;SDS011;40963;52.168;21.296;2022-07-29T05:26:38;5.45;;;1.77;;
55063;SDS011;40963;52.168;21.296;2022-07-29T05:29:04;1.42;;;1.30;;
55063;SDS011;40963;52.168;21.296;2022-07-29T05:31:30;3.30;;;1.52;;
55063;SDS011;40963;52.168;21.296;2022-07-29T05:33:56;12.73;;;1.67;;
55063;SDS011;40963;52.168;21.296;2022-07-29T05:36:21;5.05;;;1.30;;
55063;SDS011;40963;52.168;21.296;2022-07-29T05:38:47;3.28;;;1.55;;
55063;SDS011;40963;52.168;21.296;2022-07-29T05:41:13;4.70;;;1.48;;
55063;SDS011;40963;52.168;21.296;2022-07-29T05:43:38;3.22;;;1.30;;
55063;SDS011;40963;52.168;21.296;2022-07-29T05:46:04;1.83;;;1.40;;
55063;SDS011;40963;52.168;21.296;2022-07-29T05:48:30;1.67;;;1.10;;
55063;SDS011;40963;52.168;21.296;2022-07-29T05:50:55;1.60;;;1.23;;
55063;SDS011;40963;52.168;21.296;2022-07-29T05:53:21;2.35;;;1.45;;
55063;SDS011;40963;52.168;21.296;2022-07-29T05:55:47;1.23;;;1.13;;
55063;SDS011;40963;52.168;21.296;2022-07-29T05:58:13;2.47;;;1.20;;
55063;SDS011;40963;52.168;21.296;2022-07-29T06:00:39;2.83;;;1.27;;
55063;SDS011;40963;52.168;21.296;2022-07-29T06:03:05;1.00;;;1.00;;
55063;SDS011;40963;52.168;21.296;2022-07-29T06:05:31;1.50;;;1.30;;
55063;SDS011;40963;52.168;21.296;2022-07-29T06:07:56;1.88;;;0.93;;
55063;SDS011;40963;52.168;21.296;2022-07-29T06:10:22;1.15;;;1.00;;
55063;SDS011;40963;52.168;21.296;2022-07-29T06:12:47;3.95;;;1.15;;
55063;SDS011;40963;52.168;21.296;2022-07-29T06:15:13;1.27;;;0.90;;
55063;SDS011;40963;52.168;21.296;2022-07-29T06:17:39;2.67;;;0.90;;
55063;SDS011;40963;52.168;21.296;2022-07-29T06:20:05;6.90;;;1.08;;
55063;SDS011;40963;52.168;21.296;2022-07-29T06:22:31;3.55;;;1.05;;
55063;SDS011;40963;52.168;21.296;2022-07-29T06:24:57;1.45;;;0.90;;
55063;SDS011;40963;52.168;21.296;2022-07-29T06:27:22;1.95;;;1.15;;
55063;SDS011;40963;52.168;21.296;2022-07-29T06:29:48;1.08;;;1.00;;
55063;SDS011;40963;52.168;21.296;2022-07-29T06:32:14;1.33;;;1.05;;
55063;SDS011;40963;52.168;21.296;2022-07-29T06:34:39;4.60;;;1.15;;
55063;SDS011;40963;52.168;21.296;2022-07-29T06:37:06;1.73;;;0.60;;
55063;SDS011;40963;52.168;21.296;2022-07-29T06:39:33;1.20;;;0.63;;
55063;SDS011;40963;52.168;21.296;2022-07-29T06:42:00;2.58;;;1.10;;
55063;SDS011;40963;52.168;21.296;2022-07-29T06:44:26;1.25;;;0.73;;
55063;SDS011;40963;52.168;21.296;2022-07-29T06:46:51;2.92;;;0.73;;
55063;SDS011;40963;52.168;21.296;2022-07-29T06:49:18;1.23;;;1.10;;
55063;SDS011;40963;52.168;21.296;2022-07-29T06:51:43;3.83;;;1.10;;
55063;SDS011;40963;52.168;21.296;2022-07-29T06:54:09;2.95;;;0.90;;
55063;SDS011;40963;52.168;21.296;2022-07-29T06:56:35;4.07;;;0.88;;
55063;SDS011;40963;52.168;21.296;2022-07-29T06:59:02;3.40;;;1.00;;
55063;SDS011;40963;52.168;21.296;2022-07-29T07:01:28;1.40;;;0.80;;
55063;SDS011;40963;52.168;21.296;2022-07-29T07:03:54;6.80;;;1.10;;
55063;SDS011;40963;52.168;21.296;2022-07-29T07:06:19;4.97;;;1.60;;
55063;SDS011;40963;52.168;21.296;2022-07-29T07:08:45;2.17;;;0.90;;
55063;SDS011;40963;52.168;21.296;2022-07-29T07:11:11;3.13;;;1.00;;
55063;SDS011;40963;52.168;21.296;2022-07-29T07:13:37;5.05;;;1.70;;
55063;SDS011;40963;52.168;21.296;2022-07-29T07:16:03;2.05;;;1.00;;
55063;SDS011;40963;52.168;21.296;2022-07-29T07:18:29;6.35;;;0.90;;
55063;SDS011;40963;52.168;21.296;2022-07-29T07:20:55;2.80;;;0.80;;
55063;SDS011;40963;52.168;21.296;2022-07-29T07:23:21;1.85;;;1.02;;
55063;SDS011;40963;52.168;21.296;2022-07-29T07:25:47;1.30;;;1.20;;
55063;SDS011;40963;52.168;21.296;2022-07-29T07:28:13;2.38;;;0.95;;
55063;SDS011;40963;52.168;21.296;2022-07-29T07:30:39;1.00;;;0.95;;
55063;SDS011;40963;52.168;21.296;2022-07-29T07:33:04;10.32;;;3.95;;
55063;SDS011;40963;52.168;21.296;2022-07-29T07:35:30;4.63;;;1.88;;
55063;SDS011;40963;52.168;21.296;2022-07-29T07:37:56;6.00;;;1.40;;
55063;SDS011;40963;52.168;21.296;2022-07-29T07:40:22;1.35;;;1.10;;
55063;SDS011;40963;52.168;21.296;2022-07-29T07:42:48;2.58;;;1.08;;
55063;SDS011;40963;52.168;21.296;2022-07-29T07:45:13;1.92;;;0.98;;
55063;SDS011;40963;52.168;21.296;2022-07-29T07:47:39;2.92;;;0.93;;
55063;SDS011;40963;52.168;21.296;2022-07-29T07:50:07;1.63;;;0.90;;
55063;SDS011;40963;52.168;21.296;2022-07-29T07:52:36;1.30;;;0.90;;
55063;SDS011;40963;52.168;21.296;2022-07-29T07:55:15;1.65;;;0.80;;
55063;SDS011;40963;52.168;21.296;2022-07-29T07:57:41;2.88;;;1.25;;
55063;SDS011;40963;52.168;21.296;2022-07-29T08:00:07;6.50;;;1.20;;
55063;SDS011;40963;52.168;21.296;2022-07-29T08:02:34;2.83;;;1.10;;
55063;SDS011;40963;52.168;21.296;2022-07-29T08:04:59;1.60;;;0.82;;
55063;SDS011;40963;52.168;21.296;2022-07-29T08:07:25;2.35;;;1.00;;
55063;SDS011;40963;52.168;21.296;2022-07-29T08:09:51;3.40;;;1.13;;
55063;SDS011;40963;52.168;21.296;2022-07-29T08:12:16;3.15;;;1.20;;
55063;SDS011;40963;52.168;21.296;2022-07-29T08:14:42;3.33;;;0.95;;
55063;SDS011;40963;52.168;21.296;2022-07-29T08:17:08;2.03;;;1.05;;
55063;SDS011;40963;52.168;21.296;2022-07-29T08:19:33;2.65;;;1.20;;
55063;SDS011;40963;52.168;21.296;2022-07-29T08:21:59;2.33;;;0.82;;
55063;SDS011;40963;52.168;21.296;2022-07-29T08:24:24;4.53;;;1.00;;
55063;SDS011;40963;52.168;21.296;2022-07-29T08:27:09;6.57;;;1.10;;
55063;SDS011;40963;52.168;21.296;2022-07-29T08:29:35;1.77;;;0.95;;
55063;SDS011;40963;52.168;21.296;2022-07-29T08:32:01;1.75;;;0.90;;
55063;SDS011;40963;52.168;21.296;2022-07-29T08:34:27;4.32;;;0.98;;
55063;SDS011;40963;52.168;21.296;2022-07-29T08:36:53;2.00;;;0.90;;
55063;SDS011;40963;52.168;21.296;2022-07-29T08:39:20;1.30;;;0.90;;
55063;SDS011;40963;52.168;21.296;2022-07-29T08:41:46;6.40;;;1.00;;
55063;SDS011;40963;52.168;21.296;2022-07-29T08:44:13;2.75;;;0.98;;
55063;SDS011;40963;52.168;21.296;2022-07-29T08:46:41;7.57;;;1.10;;
55063;SDS011;40963;52.168;21.296;2022-07-29T08:49:07;4.68;;;0.90;;
55063;SDS011;40963;52.168;21.296;2022-07-29T08:51:33;4.40;;;1.05;;
55063;SDS011;40963;52.168;21.296;2022-07-29T08:54:00;1.55;;;0.90;;
55063;SDS011;40963;52.168;21.296;2022-07-29T08:56:26;3.80;;;1.00;;
55063;SDS011;40963;52.168;21.296;2022-07-29T08:58:53;3.60;;;1.00;;
55063;SDS011;40963;52.168;21.296;2022-07-29T09:01:24;3.17;;;0.93;;
55063;SDS011;40963;52.168;21.296;2022-07-29T09:03:54;7.30;;;0.90;;
55063;SDS011;40963;52.168;21.296;2022-07-29T09:06:21;2.90;;;1.20;;
55063;SDS011;40963;52.168;21.296;2022-07-29T09:08:51;2.35;;;1.10;;
55063;SDS011;40963;52.168;21.296;2022-07-29T09:11:16;2.92;;;0.98;;
55063;SDS011;40963;52.168;21.296;2022-07-29T09:13:42;3.90;;;1.00;;
55063;SDS011;40963;52.168;21.296;2022-07-29T09:16:08;2.65;;;0.90;;
55063;SDS011;40963;52.168;21.296;2022-07-29T09:18:41;2.25;;;0.90;;
55063;SDS011;40963;52.168;21.296;2022-07-29T09:21:09;1.38;;;0.70;;
55063;SDS011;40963;52.168;21.296;2022-07-29T09:26:38;2.00;;;0.68;;
55063;SDS011;40963;52.168;21.296;2022-07-29T09:29:11;2.45;;;1.10;;
55063;SDS011;40963;52.168;21.296;2022-07-29T09:31:40;4.77;;;0.70;;
55063;SDS011;40963;52.168;21.296;2022-07-29T09:34:07;3.40;;;0.80;;
55063;SDS011;40963;52.168;21.296;2022-07-29T09:36:40;2.38;;;0.90;;
55063;SDS011;40963;52.168;21.296;2022-07-29T09:39:11;4.35;;;0.77;;
55063;SDS011;40963;52.168;21.296;2022-07-29T09:41:43;1.65;;;0.77;;
55063;SDS011;40963;52.168;21.296;2022-07-29T09:44:14;5.70;;;0.93;;
55063;SDS011;40963;52.168;21.296;2022-07-29T09:46:51;2.88;;;0.80;;
55063;SDS011;40963;52.168;21.296;2022-07-29T09:49:22;4.75;;;0.90;;
55063;SDS011;40963;52.168;21.296;2022-07-29T09:51:47;3.90;;;0.80;;
55063;SDS011;40963;52.168;21.296;2022-07-29T09:54:24;1.75;;;0.75;;
55063;SDS011;40963;52.168;21.296;2022-07-29T09:56:51;1.08;;;0.77;;
55063;SDS011;40963;52.168;21.296;2022-07-29T09:59:17;0.65;;;0.65;;
55063;SDS011;40963;52.168;21.296;2022-07-29T10:01:45;1.98;;;0.95;;
55063;SDS011;40963;52.168;21.296;2022-07-29T10:04:12;1.85;;;0.65;;
55063;SDS011;40963;52.168;21.296;2022-07-29T10:09:24;3.92;;;0.80;;
55063;SDS011;40963;52.168;21.296;2022-07-29T10:12:24;1.90;;;0.60;;
55063;SDS011;40963;52.168;21.296;2022-07-29T10:14:42;0.93;;;0.70;;
55063;SDS011;40963;52.168;21.296;2022-07-29T10:17:08;1.58;;;0.80;;
55063;SDS011;40963;52.168;21.296;2022-07-29T10:19:35;2.80;;;0.88;;
55063;SDS011;40963;52.168;21.296;2022-07-29T10:22:06;3.05;;;0.98;;
55063;SDS011;40963;52.168;21.296;2022-07-29T10:24:33;1.38;;;0.82;;
55063;SDS011;40963;52.168;21.296;2022-07-29T10:27:00;1.52;;;0.73;;
55063;SDS011;40963;52.168;21.296;2022-07-29T10:29:27;0.77;;;0.60;;
55063;SDS011;40963;52.168;21.296;2022-07-29T10:37:28;6.20;;;0.75;;
55063;SDS011;40963;52.168;21.296;2022-07-29T10:43:38;0.85;;;0.68;;
55063;SDS011;40963;52.168;21.296;2022-07-29T10:46:07;2.05;;;0.63;;
55063;SDS011;40963;52.168;21.296;2022-07-29T10:48:34;5.70;;;0.95;;
55063;SDS011;40963;52.168;21.296;2022-07-29T10:51:01;1.20;;;0.65;;
55063;SDS011;40963;52.168;21.296;2022-07-29T10:56:28;4.25;;;0.70;;
55063;SDS011;40963;52.168;21.296;2022-07-29T11:01:48;1.77;;;0.63;;
55063;SDS011;40963;52.168;21.296;2022-07-29T11:04:15;2.47;;;0.60;;
55063;SDS011;40963;52.168;21.296;2022-07-29T11:07:26;1.00;;;0.50;;
55063;SDS011;40963;52.168;21.296;2022-07-29T11:09:29;1.48;;;0.60;;
55063;SDS011;40963;52.168;21.296;2022-07-29T11:11:58;3.15;;;0.60;;
55063;SDS011;40963;52.168;21.296;2022-07-29T11:14:54;4.13;;;0.60;;
55063;SDS011;40963;52.168;21.296;2022-07-29T11:17:21;1.15;;;0.70;;
55063;SDS011;40963;52.168;21.296;2022-07-29T11:19:47;4.05;;;0.65;;
55063;SDS011;40963;52.168;21.296;2022-07-29T11:22:30;2.28;;;0.60;;
55063;SDS011;40963;52.168;21.296;2022-07-29T11:25:13;1.58;;;0.80;;
55063;SDS011;40963;52.168;21.296;2022-07-29T11:27:40;2.35;;;0.63;;
55063;SDS011;40963;52.168;21.296;2022-07-29T11:30:06;2.13;;;0.82;;
55063;SDS011;40963;52.168;21.296;2022-07-29T11:32:36;0.57;;;0.57;;
55063;SDS011;40963;52.168;21.296;2022-07-29T11:35:11;0.60;;;0.60;;
55063;SDS011;40963;52.168;21.296;2022-07-29T11:44:10;1.95;;;0.90;;
55063;SDS011;40963;52.168;21.296;2022-07-29T11:49:18;1.83;;;0.68;;
55063;SDS011;40963;52.168;21.296;2022-07-29T11:51:52;3.45;;;0.70;;
55063;SDS011;40963;52.168;21.296;2022-07-29T11:54:23;0.90;;;0.60;;
55063;SDS011;40963;52.168;21.296;2022-07-29T11:56:53;2.28;;;0.98;;
55063;SDS011;40963;52.168;21.296;2022-07-29T11:59:20;4.65;;;0.80;;
55063;SDS011;40963;52.168;21.296;2022-07-29T12:01:53;6.70;;;0.70;;
55063;SDS011;40963;52.168;21.296;2022-07-29T12:04:19;0.60;;;0.50;;
55063;SDS011;40963;52.168;21.296;2022-07-29T12:06:51;5.97;;;0.90;;
55063;SDS011;40963;52.168;21.296;2022-07-29T12:09:17;6.13;;;1.00;;
55063;SDS011;40963;52.168;21.296;2022-07-29T12:11:43;2.58;;;0.60;;
55063;SDS011;40963;52.168;21.296;2022-07-29T12:14:23;3.58;;;0.60;;
55063;SDS011;40963;52.168;21.296;2022-07-29T12:16:53;7.00;;;0.75;;
55063;SDS011;40963;52.168;21.296;2022-07-29T12:19:18;2.75;;;0.80;;
55063;SDS011;40963;52.168;21.296;2022-07-29T12:21:45;2.20;;;0.60;;
55063;SDS011;40963;52.168;21.296;2022-07-29T12:24:16;1.65;;;1.30;;
55063;SDS011;40963;52.168;21.296;2022-07-29T12:26:58;0.70;;;0.70;;
55063;SDS011;40963;52.168;21.296;2022-07-29T12:29:25;3.05;;;0.60;;
55063;SDS011;40963;52.168;21.296;2022-07-29T12:31:54;3.22;;;0.85;;
55063;SDS011;40963;52.168;21.296;2022-07-29T12:34:22;1.67;;;0.60;;
55063;SDS011;40963;52.168;21.296;2022-07-29T12:36:49;3.30;;;0.80;;
55063;SDS011;40963;52.168;21.296;2022-07-29T12:39:16;5.95;;;0.70;;
55063;SDS011;40963;52.168;21.296;2022-07-29T12:41:42;1.80;;;0.70;;
55063;SDS011;40963;52.168;21.296;2022-07-29T12:44:09;1.33;;;0.65;;
55063;SDS011;40963;52.168;21.296;2022-07-29T12:46:35;4.22;;;0.65;;
55063;SDS011;40963;52.168;21.296;2022-07-29T12:49:01;2.55;;;0.85;;
55063;SDS011;40963;52.168;21.296;2022-07-29T12:51:33;1.35;;;0.60;;
55063;SDS011;40963;52.168;21.296;2022-07-29T12:54:03;2.75;;;0.57;;
55063;SDS011;40963;52.168;21.296;2022-07-29T12:56:30;1.40;;;0.80;;
55063;SDS011;40963;52.168;21.296;2022-07-29T12:58:56;2.80;;;0.80;;
55063;SDS011;40963;52.168;21.296;2022-07-29T13:01:22;1.95;;;0.70;;
55063;SDS011;40963;52.168;21.296;2022-07-29T13:11:41;10.73;;;1.00;;
55063;SDS011;40963;52.168;21.296;2022-07-29T13:16:59;5.82;;;0.98;;
55063;SDS011;40963;52.168;21.296;2022-07-29T13:19:35;0.75;;;0.70;;
55063;SDS011;40963;52.168;21.296;2022-07-29T13:22:03;3.03;;;0.82;;
55063;SDS011;40963;52.168;21.296;2022-07-29T13:24:29;1.50;;;0.70;;
55063;SDS011;40963;52.168;21.296;2022-07-29T13:26:55;3.67;;;1.48;;
55063;SDS011;40963;52.168;21.296;2022-07-29T13:29:21;3.03;;;0.80;;
55063;SDS011;40963;52.168;21.296;2022-07-29T13:31:46;2.08;;;0.80;;
55063;SDS011;40963;52.168;21.296;2022-07-29T13:34:12;2.28;;;1.08;;
55063;SDS011;40963;52.168;21.296;2022-07-29T13:36:38;3.45;;;1.10;;
55063;SDS011;40963;52.168;21.296;2022-07-29T13:39:03;1.88;;;1.13;;
55063;SDS011;40963;52.168;21.296;2022-07-29T13:41:29;2.25;;;0.80;;
55063;SDS011;40963;52.168;21.296;2022-07-29T13:43:55;3.53;;;1.10;;
55063;SDS011;40963;52.168;21.296;2022-07-29T13:46:20;6.40;;;1.30;;
55063;SDS011;40963;52.168;21.296;2022-07-29T13:48:46;9.50;;;1.15;;
55063;SDS011;40963;52.168;21.296;2022-07-29T13:51:12;1.30;;;1.13;;
55063;SDS011;40963;52.168;21.296;2022-07-29T13:53:38;4.13;;;0.82;;
55063;SDS011;40963;52.168;21.296;2022-07-29T13:56:03;5.10;;;1.05;;
55063;SDS011;40963;52.168;21.296;2022-07-29T13:58:32;2.92;;;1.00;;
55063;SDS011;40963;52.168;21.296;2022-07-29T14:00:58;1.20;;;1.10;;
55063;SDS011;40963;52.168;21.296;2022-07-29T14:03:24;3.55;;;0.90;;
55063;SDS011;40963;52.168;21.296;2022-07-29T14:05:50;1.13;;;0.70;;
55063;SDS011;40963;52.168;21.296;2022-07-29T14:08:16;1.05;;;0.52;;
55063;SDS011;40963;52.168;21.296;2022-07-29T14:10:42;3.65;;;0.68;;
55063;SDS011;40963;52.168;21.296;2022-07-29T14:13:08;2.38;;;0.75;;
55063;SDS011;40963;52.168;21.296;2022-07-29T14:15:33;0.85;;;0.65;;
55063;SDS011;40963;52.168;21.296;2022-07-29T14:17:59;2.20;;;1.08;;
55063;SDS011;40963;52.168;21.296;2022-07-29T14:20:25;2.53;;;1.00;;
55063;SDS011;40963;52.168;21.296;2022-07-29T14:22:53;3.75;;;0.80;;
55063;SDS011;40963;52.168;21.296;2022-07-29T14:25:19;1.52;;;0.70;;
55063;SDS011;40963;52.168;21.296;2022-07-29T14:27:44;2.53;;;0.80;;
55063;SDS011;40963;52.168;21.296;2022-07-29T14:30:10;4.15;;;0.93;;
55063;SDS011;40963;52.168;21.296;2022-07-29T14:32:36;5.43;;;0.80;;
55063;SDS011;40963;52.168;21.296;2022-07-29T14:35:02;1.42;;;0.60;;
55063;SDS011;40963;52.168;21.296;2022-07-29T14:37:27;0.88;;;0.55;;
55063;SDS011;40963;52.168;21.296;2022-07-29T14:39:53;0.93;;;0.80;;
55063;SDS011;40963;52.168;21.296;2022-07-29T14:42:24;5.03;;;1.30;;
55063;SDS011;40963;52.168;21.296;2022-07-29T14:44:50;4.30;;;0.80;;
55063;SDS011;40963;52.168;21.296;2022-07-29T14:47:15;4.07;;;0.63;;
55063;SDS011;40963;52.168;21.296;2022-07-29T14:49:41;4.03;;;0.95;;
55063;SDS011;40963;52.168;21.296;2022-07-29T14:52:07;4.07;;;0.80;;
55063;SDS011;40963;52.168;21.296;2022-07-29T14:54:32;2.03;;;1.00;;
55063;SDS011;40963;52.168;21.296;2022-07-29T14:56:58;1.63;;;0.90;;
55063;SDS011;40963;52.168;21.296;2022-07-29T14:59:24;4.18;;;1.10;;
55063;SDS011;40963;52.168;21.296;2022-07-29T15:01:51;0.80;;;0.55;;
55063;SDS011;40963;52.168;21.296;2022-07-29T15:04:16;7.03;;;0.90;;
55063;SDS011;40963;52.168;21.296;2022-07-29T15:06:42;5.93;;;0.80;;
55063;SDS011;40963;52.168;21.296;2022-07-29T15:09:08;1.70;;;0.77;;
55063;SDS011;40963;52.168;21.296;2022-07-29T15:11:33;1.92;;;1.05;;
55063;SDS011;40963;52.168;21.296;2022-07-29T15:13:59;0.80;;;0.80;;
55063;SDS011;40963;52.168;21.296;2022-07-29T15:16:24;8.93;;;0.85;;
55063;SDS011;40963;52.168;21.296;2022-07-29T15:18:50;5.32;;;1.00;;
55063;SDS011;40963;52.168;21.296;2022-07-29T15:21:16;2.75;;;1.27;;
55063;SDS011;40963;52.168;21.296;2022-07-29T15:23:41;4.75;;;1.30;;
55063;SDS011;40963;52.168;21.296;2022-07-29T15:26:07;2.17;;;1.10;;
55063;SDS011;40963;52.168;21.296;2022-07-29T15:28:32;1.50;;;0.75;;
55063;SDS011;40963;52.168;21.296;2022-07-29T15:30:58;3.38;;;0.90;;